Time;durP1;ratioP1;P1;durP2;ratioP2;P2;SDS_P1;SDS_P2;PMS_P1;PMS_P2;Temp;Humidity;BMP_temperature;BMP_pressure;BME280_temperature;BME280_humidity;BME280_pressure;Samples;Min_cycle;Max_cycle;Signal;HPM_P1;HPM_P2
2021/09/08 00:02:16;;;;;;;;;;;;;;;15.10;64.72;96832.69;5056599;28;19965;-84
2021/09/08 00:04:42;;;;;;;;;;;;;;;15.09;64.69;96831.06;5056270;28;20011;-84
2021/09/08 00:07:08;;;;;;;;;;;;;;;15.08;64.57;96833.97;5056162;28;19973;-84
2021/09/08 00:09:34;;;;;;;;;;;;;;;15.06;65.09;96830.75;5056440;28;19955;-84
2021/09/08 00:11:59;;;;;;;;;;;;;;;15.03;65.19;96826.72;5056231;28;19960;-84
2021/09/08 00:14:25;;;;;;;;;;;;;;;14.99;65.19;96820.31;5056205;28;19975;-84
2021/09/08 00:16:57;;;;;;;;;;;;;;;14.95;65.54;96822.66;5055505;28;19969;-84
2021/09/08 00:19:23;;;;;;;;;;;;;;;14.90;65.57;96819.09;5054810;28;20418;-84
2021/09/08 00:21:49;;;;;;;;;;;;;;;14.86;65.77;96816.13;5056466;28;20411;-84
2021/09/08 00:24:15;;;;;;;;;;;;;;;14.83;65.79;96806.03;5056043;28;20503;-84
2021/09/08 00:26:41;;;;;;;;;;;;;;;14.81;65.87;96808.13;5055924;28;20059;-84
2021/09/08 00:29:07;;;;;;;;;;;;;;;14.77;65.85;96801.72;5056112;28;19955;-84
2021/09/08 00:31:33;;;;;;;;;;;;;;;14.74;65.95;96802.97;5054694;28;20423;-84
2021/09/08 00:33:58;;;;;;;;;;;;;;;14.71;66.47;96800.81;5056127;28;19965;-84
2021/09/08 00:36:24;;;;;;;;;;;;;;;14.68;66.73;96798.66;5055547;28;20376;-84
2021/09/08 00:38:50;;;;;;;;;;;;;;;14.64;66.75;96800.16;5055564;28;19961;-84
2021/09/08 00:41:18;;;;;;;;;;;;;;;14.61;66.92;96798.78;5055427;28;20002;-84
2021/09/08 00:43:44;;;;;;;;;;;;;;;14.57;66.70;96797.66;5055109;28;19968;-84
2021/09/08 00:46:10;;;;;;;;;;;;;;;14.55;66.45;96791.81;5055446;28;19969;-84
2021/09/08 00:48:36;;;;;;;;;;;;;;;14.53;66.90;96793.84;5055707;28;19969;-85
2021/09/08 00:51:02;;;;;;;;;;;;;;;14.51;67.25;96797.72;5055307;28;19955;-84
2021/09/08 00:53:29;;;;;;;;;;;;;;;14.49;67.33;96789.25;5055560;28;20046;-84
2021/09/08 00:55:55;;;;;;;;;;;;;;;14.47;66.82;96791.31;5055136;28;19963;-84
2021/09/08 00:58:21;;;;;;;;;;;;;;;14.45;67.16;96793.38;5056176;28;20317;-84
2021/09/08 01:00:47;;;;;;;;;;;;;;;14.40;67.40;96792.28;5055682;28;19961;-84
2021/09/08 01:03:13;;;;;;;;;;;;;;;14.38;67.25;96791.72;5055435;28;20258;-85
2021/09/08 01:05:38;;;;;;;;;;;;;;;14.34;67.39;96785.28;5055384;28;20021;-84
2021/09/08 01:08:06;;;;;;;;;;;;;;;14.30;67.62;96796.53;5055201;28;19958;-84
2021/09/08 01:10:32;;;;;;;;;;;;;;;14.26;67.93;96793.56;5054980;28;19957;-84
2021/09/08 01:12:58;;;;;;;;;;;;;;;14.24;68.39;96777.16;5055825;28;19957;-84
2021/09/08 01:15:24;;;;;;;;;;;;;;;14.20;67.92;96778.66;5055194;28;19963;-84
2021/09/08 01:17:50;;;;;;;;;;;;;;;14.19;68.42;96784.97;5055036;28;20430;-84
2021/09/08 01:20:16;;;;;;;;;;;;;;;14.18;68.13;96789.44;5055298;28;19967;-85
2021/09/08 01:22:48;;;;;;;;;;;;;;;14.17;68.38;96773.84;5054843;28;19997;-84
2021/09/08 01:25:21;;;;;;;;;;;;;;;14.14;68.17;96776.94;5054880;28;19971;-84
2021/09/08 01:27:48;;;;;;;;;;;;;;;14.12;68.31;96776.38;5055181;28;19982;-85
2021/09/08 01:30:15;;;;;;;;;;;;;;;14.09;68.71;96776.81;5054843;28;19970;-84
2021/09/08 01:32:41;;;;;;;;;;;;;;;14.05;68.36;96771.22;5054921;28;19958;-84
2021/09/08 01:35:07;;;;;;;;;;;;;;;14.02;68.57;96769.84;5054823;28;20031;-84
2021/09/08 01:37:33;;;;;;;;;;;;;;;14.00;68.51;96765.84;5054540;28;19966;-85
2021/09/08 01:39:59;;;;;;;;;;;;;;;14.00;68.33;96768.47;5054605;28;20002;-85
2021/09/08 01:42:25;;;;;;;;;;;;;;;13.98;68.66;96773.19;5055083;28;20364;-85
2021/09/08 01:44:51;;;;;;;;;;;;;;;13.95;68.59;96774.44;5054320;28;20383;-85
2021/09/08 01:47:16;;;;;;;;;;;;;;;13.92;68.55;96764.38;5054419;28;20015;-84
2021/09/08 01:49:42;;;;;;;;;;;;;;;13.91;68.71;96764.59;5054653;28;19962;-84
2021/09/08 01:52:08;;;;;;;;;;;;;;;13.90;68.77;96768.25;5054477;28;20316;-85
2021/09/08 01:54:34;;;;;;;;;;;;;;;13.88;68.69;96760.59;5054084;28;19964;-85
2021/09/08 01:57:00;;;;;;;;;;;;;;;13.88;68.85;96765.88;5053174;28;19962;-85
2021/09/08 01:59:26;;;;;;;;;;;;;;;13.85;68.65;96763.69;5054214;28;19966;-85
2021/09/08 02:01:53;;;;;;;;;;;;;;;13.83;68.80;96762.31;5054038;28;19966;-84
2021/09/08 02:04:19;;;;;;;;;;;;;;;13.81;68.97;96757.25;5054247;28;19968;-84
2021/09/08 02:06:49;;;;;;;;;;;;;;;13.79;69.29;96756.69;5053784;28;20045;-84
2021/09/08 02:09:16;;;;;;;;;;;;;;;13.75;69.03;96766.91;5054255;28;19957;-85
2021/09/08 02:11:42;;;;;;;;;;;;;;;13.75;69.21;96769.53;5054460;28;19967;-85
2021/09/08 02:14:08;;;;;;;;;;;;;;;13.74;69.21;96757.38;5053898;28;20052;-85
2021/09/08 02:16:33;;;;;;;;;;;;;;;13.71;69.45;96754.41;5054111;28;19991;-85
2021/09/08 02:18:59;;;;;;;;;;;;;;;13.69;69.38;96759.09;5053672;28;20414;-84
2021/09/08 02:21:25;;;;;;;;;;;;;;;13.66;69.46;96760.38;5053964;28;19963;-84
2021/09/08 02:23:51;;;;;;;;;;;;;;;13.65;69.51;96742.97;5053876;28;20063;-84
2021/09/08 02:26:17;;;;;;;;;;;;;;;13.63;69.47;96749.47;5053829;28;19979;-85
2021/09/08 02:28:44;;;;;;;;;;;;;;;13.63;69.47;96746.84;5053939;28;20438;-84
2021/09/08 02:31:10;;;;;;;;;;;;;;;13.59;69.55;96747.31;5053880;28;20335;-84
2021/09/08 02:33:36;;;;;;;;;;;;;;;13.58;69.44;96743.06;5053666;28;20030;-85
2021/09/08 02:36:03;;;;;;;;;;;;;;;13.55;69.63;96743.53;5053618;28;19974;-85
2021/09/08 02:38:30;;;;;;;;;;;;;;;13.54;69.66;96749.84;5053751;28;19984;-85
2021/09/08 02:40:57;;;;;;;;;;;;;;;13.52;69.84;96751.91;5053571;28;19962;-85
2021/09/08 02:43:22;;;;;;;;;;;;;;;13.51;70.09;96745.00;5053657;28;19960;-85
2021/09/08 02:45:48;;;;;;;;;;;;;;;13.51;70.07;96733.69;5053635;28;20010;-85
2021/09/08 02:48:14;;;;;;;;;;;;;;;13.51;69.93;96737.09;5052108;28;20013;-85
2021/09/08 02:50:40;;;;;;;;;;;;;;;13.51;70.12;96731.03;5052336;28;19964;-85
2021/09/08 02:53:06;;;;;;;;;;;;;;;13.50;70.16;96735.53;5053241;28;19969;-85
2021/09/08 02:55:32;;;;;;;;;;;;;;;13.51;70.16;96731.03;5054031;28;19997;-85
2021/09/08 02:57:58;;;;;;;;;;;;;;;13.50;70.54;96724.16;5053195;28;20397;-85
2021/09/08 03:00:24;;;;;;;;;;;;;;;13.47;70.35;96724.63;5053391;28;19960;-85
2021/09/08 03:02:49;;;;;;;;;;;;;;;13.43;70.61;96729.53;5053328;28;20333;-85
2021/09/08 03:05:15;;;;;;;;;;;;;;;13.39;70.32;96726.56;5053112;28;19958;-84
2021/09/08 03:07:41;;;;;;;;;;;;;;;13.37;70.63;96722.56;5056123;28;20432;-85
2021/09/08 03:10:07;;;;;;;;;;;;;;;13.34;70.98;96717.75;5057643;28;20000;-85
2021/09/08 03:12:33;;;;;;;;;;;;;;;13.33;70.88;96716.97;5057422;28;19962;-85
2021/09/08 03:14:59;;;;;;;;;;;;;;;13.32;71.36;96720.59;5057292;28;19991;-85
2021/09/08 03:17:25;;;;;;;;;;;;;;;13.30;71.07;96713.97;5057257;28;19965;-85
2021/09/08 03:19:51;;;;;;;;;;;;;;;13.29;71.08;96715.00;5057333;28;19993;-85
2021/09/08 03:22:17;;;;;;;;;;;;;;;13.26;70.85;96708.31;5057175;28;20041;-85
2021/09/08 03:24:42;;;;;;;;;;;;;;;13.26;71.17;96707.53;5057568;28;19966;-85
2021/09/08 03:27:09;;;;;;;;;;;;;;;13.26;70.68;96708.31;5056538;28;19978;-85
2021/09/08 03:29:35;;;;;;;;;;;;;;;13.26;70.94;96704.88;5056715;28;19970;-85
2021/09/08 03:32:01;;;;;;;;;;;;;;;13.26;70.78;96702.25;5057265;28;20390;-85
2021/09/08 03:34:26;;;;;;;;;;;;;;;13.23;70.91;96700.88;5057012;28;19971;-85
2021/09/08 03:36:52;;;;;;;;;;;;;;;13.23;71.09;96703.53;5057582;28;19955;-85
2021/09/08 03:39:18;;;;;;;;;;;;;;;13.20;71.32;96702.13;5056937;28;19968;-85
2021/09/08 03:41:44;;;;;;;;;;;;;;;13.17;71.10;96707.06;5045531;28;19967;-85
2021/09/08 03:44:10;;;;;;;;;;;;;;;13.16;71.05;96702.81;5056622;28;19958;-85
2021/09/08 03:46:36;;;;;;;;;;;;;;;13.15;71.25;96699.38;5056419;28;20023;-85
2021/09/08 03:49:02;;;;;;;;;;;;;;;13.13;71.53;96701.44;5056893;28;20322;-85
2021/09/08 03:51:27;;;;;;;;;;;;;;;13.14;71.51;96691.69;5056634;28;19987;-85
2021/09/08 03:53:58;;;;;;;;;;;;;;;13.12;71.25;96691.94;5056938;28;19962;-85
2021/09/08 03:56:24;;;;;;;;;;;;;;;13.12;71.34;96696.41;5056919;28;19959;-85
2021/09/08 03:58:50;;;;;;;;;;;;;;;13.10;71.54;96695.81;5056452;28;19953;-85
2021/09/08 04:01:16;;;;;;;;;;;;;;;13.08;71.33;96693.44;5056585;28;19962;-85
2021/09/08 04:03:42;;;;;;;;;;;;;;;13.07;71.12;96680.50;5056440;28;19954;-85
2021/09/08 04:06:08;;;;;;;;;;;;;;;13.04;71.67;96681.75;5056505;28;19963;-85
2021/09/08 04:08:33;;;;;;;;;;;;;;;13.05;71.81;96685.97;5056192;28;19958;-85
2021/09/08 04:10:59;;;;;;;;;;;;;;;13.00;71.90;96684.03;5056364;28;19956;-85
2021/09/08 04:13:28;;;;;;;;;;;;;;;12.99;71.86;96678.97;5056248;28;19959;-85
2021/09/08 04:15:54;;;;;;;;;;;;;;;12.97;71.98;96675.78;5055723;28;20315;-85
2021/09/08 04:18:20;;;;;;;;;;;;;;;12.96;72.02;96672.34;5056967;28;19967;-85
2021/09/08 04:20:45;;;;;;;;;;;;;;;12.95;72.00;96672.56;5056125;28;20005;-85
2021/09/08 04:23:11;;;;;;;;;;;;;;;12.95;72.64;96668.09;5056036;28;20020;-85
2021/09/08 04:25:37;;;;;;;;;;;;;;;12.97;72.54;96670.50;5055767;28;20431;-85
2021/09/08 04:28:03;;;;;;;;;;;;;;;12.96;72.07;96664.44;5055895;28;20063;-85
2021/09/08 04:30:29;;;;;;;;;;;;;;;12.98;72.06;96670.28;5055667;28;20042;-85
2021/09/08 04:32:55;;;;;;;;;;;;;;;12.98;72.28;96674.75;5055152;28;20526;-85
2021/09/08 04:35:21;;;;;;;;;;;;;;;12.96;72.34;96667.09;5056203;28;20004;-85
2021/09/08 04:37:47;;;;;;;;;;;;;;;12.98;72.03;96672.13;5055767;28;20007;-85
2021/09/08 04:40:13;;;;;;;;;;;;;;;12.98;71.89;96672.13;5056240;28;19966;-85
2021/09/08 04:42:39;;;;;;;;;;;;;;;12.99;71.90;96671.09;5055601;28;19958;-85
2021/09/08 04:45:05;;;;;;;;;;;;;;;13.00;72.24;96670.06;5055407;28;20330;-85
2021/09/08 04:47:31;;;;;;;;;;;;;;;12.98;72.16;96678.19;5055935;28;19970;-85
2021/09/08 04:49:57;;;;;;;;;;;;;;;12.98;71.82;96674.75;5055600;28;19965;-85
2021/09/08 04:52:23;;;;;;;;;;;;;;;12.94;72.02;96673.63;5055437;28;20041;-84
2021/09/08 04:54:49;;;;;;;;;;;;;;;12.94;71.96;96676.25;5055510;28;20003;-85
2021/09/08 04:57:14;;;;;;;;;;;;;;;12.93;71.92;96677.25;5055234;28;20329;-85
2021/09/08 04:59:40;;;;;;;;;;;;;;;12.92;72.14;96673.03;5055489;28;19965;-85
2021/09/08 05:02:07;;;;;;;;;;;;;;;12.90;72.14;96681.16;5054437;28;19957;-85
2021/09/08 05:04:33;;;;;;;;;;;;;;;12.90;72.31;96675.88;5055421;28;19957;-84
2021/09/08 05:06:59;;;;;;;;;;;;;;;12.89;72.20;96682.19;5055309;28;20328;-85
2021/09/08 05:09:25;;;;;;;;;;;;;;;12.87;72.12;96678.97;5055272;28;20007;-85
2021/09/08 05:11:51;;;;;;;;;;;;;;;12.85;72.24;96670.50;5054154;28;20048;-85
2021/09/08 05:14:18;;;;;;;;;;;;;;;12.85;72.21;96682.84;5053667;28;19965;-84
2021/09/08 05:16:44;;;;;;;;;;;;;;;12.83;71.87;96682.28;5054346;28;20400;-85
2021/09/08 05:19:10;;;;;;;;;;;;;;;12.79;72.32;96680.09;5055147;28;19965;-85
2021/09/08 05:21:36;;;;;;;;;;;;;;;12.75;72.20;96670.25;5054586;28;19962;-84
2021/09/08 05:24:01;;;;;;;;;;;;;;;12.74;72.17;96673.91;5053767;28;20430;-85
2021/09/08 05:26:27;;;;;;;;;;;;;;;12.88;72.41;96677.16;5054574;28;20012;-85
2021/09/08 05:28:53;;;;;;;;;;;;;;;13.36;71.14;96673.53;5054842;28;19970;-85
2021/09/08 05:31:19;;;;;;;;;;;;;;;13.93;70.13;96668.41;5054895;28;20442;-85
2021/09/08 05:33:45;;;;;;;;;;;;;;;14.49;68.59;96666.03;5055100;28;19958;-85
2021/09/08 05:36:11;;;;;;;;;;;;;;;14.98;67.09;96665.56;5054673;28;20004;-85
2021/09/08 05:38:37;;;;;;;;;;;;;;;15.32;65.96;96665.53;5054535;28;19964;-85
2021/09/08 05:41:05;;;;;;;;;;;;;;;15.61;65.12;96656.41;5054681;28;19959;-85
2021/09/08 05:43:32;;;;;;;;;;;;;;;15.93;63.87;96655.78;5054342;28;19967;-84
2021/09/08 05:45:58;;;;;;;;;;;;;;;16.27;63.06;96646.88;5054588;28;19960;-85
2021/09/08 05:48:24;;;;;;;;;;;;;;;16.64;62.01;96647.78;5054746;28;20408;-85
2021/09/08 05:50:50;;;;;;;;;;;;;;;17.08;61.64;96638.88;5052926;28;19961;-85
2021/09/08 05:53:16;;;;;;;;;;;;;;;17.50;59.84;96635.44;5054032;28;19960;-85
2021/09/08 05:55:42;;;;;;;;;;;;;;;17.90;59.00;96627.94;5054213;28;20443;-84
2021/09/08 05:58:08;;;;;;;;;;;;;;;18.24;57.41;96617.69;5053988;28;20017;-84
2021/09/08 06:00:34;;;;;;;;;;;;;;;18.53;57.57;96618.00;5054369;28;19976;-85
2021/09/08 06:02:59;;;;;;;;;;;;;;;18.74;56.42;96610.84;5054059;28;19962;-84
2021/09/08 06:05:25;;;;;;;;;;;;;;;18.96;56.57;96605.28;5054137;28;20001;-84
2021/09/08 06:07:51;;;;;;;;;;;;;;;19.19;55.94;96598.63;5051976;28;20385;-84
2021/09/08 06:10:20;;;;;;;;;;;;;;;19.42;55.74;96605.19;5054068;28;19978;-84
2021/09/08 06:12:46;;;;;;;;;;;;;;;19.63;55.03;96595.28;5053962;28;19992;-84
2021/09/08 06:15:12;;;;;;;;;;;;;;;19.81;54.48;96588.56;5054123;28;19967;-84
2021/09/08 06:17:39;;;;;;;;;;;;;;;19.97;54.31;96599.97;5054049;28;19990;-84
2021/09/08 06:20:05;;;;;;;;;;;;;;;20.07;53.62;96586.59;5053361;28;19967;-84
2021/09/08 06:22:31;;;;;;;;;;;;;;;20.11;54.15;96594.81;5053698;28;19987;-84
2021/09/08 06:24:57;;;;;;;;;;;;;;;20.09;52.71;96580.97;5051670;28;19970;-84
2021/09/08 06:27:23;;;;;;;;;;;;;;;20.04;53.29;96586.34;5053466;28;19978;-84
2021/09/08 06:29:49;;;;;;;;;;;;;;;20.04;53.63;96591.66;5053727;28;19961;-84
2021/09/08 06:32:15;;;;;;;;;;;;;;;20.01;53.04;96587.69;5054092;28;20036;-84
2021/09/08 06:34:45;;;;;;;;;;;;;;;20.02;53.54;96588.47;5053247;28;19962;-84
2021/09/08 06:37:11;;;;;;;;;;;;;;;20.02;53.91;96589.28;5052817;28;19972;-84
2021/09/08 06:39:37;;;;;;;;;;;;;;;20.00;55.04;96609.25;5052594;28;19963;-84
2021/09/08 06:42:03;;;;;;;;;;;;;;;19.87;54.02;96600.78;5052865;28;20398;-83
2021/09/08 06:44:29;;;;;;;;;;;;;;;19.72;54.31;96600.06;5053710;28;19964;-84
2021/09/08 06:46:55;;;;;;;;;;;;;;;19.70;54.84;96602.16;5053601;28;19972;-83
2021/09/08 06:49:21;;;;;;;;;;;;;;;19.63;54.96;96599.78;5036082;28;19963;-83
2021/09/08 06:51:48;;;;;;;;;;;;;;;19.61;54.56;96593.94;5053335;28;20016;-84
2021/09/08 06:54:14;;;;;;;;;;;;;;;19.58;54.93;96600.63;5053434;28;19969;-83
2021/09/08 06:56:40;;;;;;;;;;;;;;;19.61;54.51;96600.09;5052263;28;19965;-83
2021/09/08 06:59:06;;;;;;;;;;;;;;;19.65;54.72;96595.81;5053624;28;19962;-83
2021/09/08 07:01:32;;;;;;;;;;;;;;;19.67;55.18;96603.50;5053445;28;20413;-83
2021/09/08 07:03:58;;;;;;;;;;;;;;;19.63;54.44;96595.28;5053661;28;19971;-84
2021/09/08 07:06:23;;;;;;;;;;;;;;;19.63;54.83;96591.81;5053437;28;20068;-83
2021/09/08 07:08:50;;;;;;;;;;;;;;;19.53;54.61;96594.50;5053179;28;19970;-83
2021/09/08 07:11:16;;;;;;;;;;;;;;;19.35;55.39;96593.25;5053303;28;20344;-83
2021/09/08 07:13:42;;;;;;;;;;;;;;;19.18;56.32;96601.53;5053439;28;19970;-83
2021/09/08 07:16:09;;;;;;;;;;;;;;;19.12;56.50;96608.72;5053250;28;19963;-83
2021/09/08 07:18:35;;;;;;;;;;;;;;;19.17;56.30;96607.91;5053513;28;19959;-83
2021/09/08 07:21:01;;;;;;;;;;;;;;;19.23;56.72;96604.97;5053162;28;19961;-83
2021/09/08 07:23:27;;;;;;;;;;;;;;;19.31;56.31;96603.63;5053431;28;19992;-83
2021/09/08 07:25:53;;;;;;;;;;;;;;;19.45;56.55;96598.53;5053007;28;19969;-83
2021/09/08 07:28:19;;;;;;;;;;;;;;;19.58;56.88;96610.47;5053379;28;20067;-83
2021/09/08 07:30:46;;;;;;;;;;;;;;;19.75;56.11;96596.88;5053330;28;19997;-83
2021/09/08 07:33:12;;;;;;;;;;;;;;;19.79;56.26;96592.59;5053079;28;19966;-83
2021/09/08 07:35:39;;;;;;;;;;;;;;;19.89;56.44;96597.06;5053122;28;19974;-83
2021/09/08 07:38:04;;;;;;;;;;;;;;;19.94;55.41;96599.69;5053122;28;19965;-83
2021/09/08 07:40:32;;;;;;;;;;;;;;;19.99;55.67;96589.84;5053065;28;20008;-83
2021/09/08 07:42:58;;;;;;;;;;;;;;;20.17;55.70;96591.03;5053210;28;19960;-82
2021/09/08 07:45:24;;;;;;;;;;;;;;;20.33;54.93;96582.97;5052918;28;20339;-83
2021/09/08 07:47:50;;;;;;;;;;;;;;;20.43;55.06;96582.88;5052711;28;20029;-82
2021/09/08 07:50:16;;;;;;;;;;;;;;;20.44;54.38;96577.28;5052643;28;19961;-82
2021/09/08 07:52:42;;;;;;;;;;;;;;;20.50;54.75;96580.72;5053999;28;19978;-83
2021/09/08 07:55:08;;;;;;;;;;;;;;;20.68;54.95;96589.91;5056686;28;20386;-82
2021/09/08 07:57:34;;;;;;;;;;;;;;;20.82;54.29;96574.09;5056700;28;20010;-82
2021/09/08 08:00:00;;;;;;;;;;;;;;;20.81;53.81;96569.81;5056419;28;20415;-82
2021/09/08 08:02:26;;;;;;;;;;;;;;;20.76;54.10;96576.00;5056205;28;20065;-83
2021/09/08 08:04:52;;;;;;;;;;;;;;;20.81;54.44;96577.81;5056354;28;19972;-82
2021/09/08 08:07:18;;;;;;;;;;;;;;;20.88;53.46;96570.31;5056324;28;20455;-82
2021/09/08 08:09:43;;;;;;;;;;;;;;;21.00;54.12;96572.59;5055189;28;20050;-83
2021/09/08 08:12:10;;;;;;;;;;;;;;;21.20;53.69;96566.25;5056732;28;19994;-82
2021/09/08 08:14:36;;;;;;;;;;;;;;;21.33;52.72;96559.44;5055314;28;19971;-82
2021/09/08 08:17:03;;;;;;;;;;;;;;;21.35;52.32;96555.41;5056289;28;19966;-83
2021/09/08 08:19:29;;;;;;;;;;;;;;;21.32;52.34;96557.88;5055155;28;19960;-82
2021/09/08 08:21:55;;;;;;;;;;;;;;;21.35;52.15;96554.63;5056360;28;19999;-83
2021/09/08 08:24:21;;;;;;;;;;;;;;;21.35;52.61;96560.75;5056157;28;19976;-83
2021/09/08 08:26:47;;;;;;;;;;;;;;;21.37;51.83;96552.47;5055874;28;20390;-82
2021/09/08 08:29:13;;;;;;;;;;;;;;;21.39;52.21;96559.09;5056186;28;19981;-83
2021/09/08 08:31:39;;;;;;;;;;;;;;;21.39;52.31;96551.09;5055829;28;20059;-82
2021/09/08 08:34:04;;;;;;;;;;;;;;;21.40;51.36;96549.25;5055647;28;19958;-82
2021/09/08 08:36:31;;;;;;;;;;;;;;;21.46;48.64;96527.56;5055988;28;19970;-83
2021/09/08 08:38:57;;;;;;;;;;;;;;;21.43;50.12;96536.13;5055872;28;20339;-83
2021/09/08 08:41:23;;;;;;;;;;;;;;;21.47;50.91;96539.81;5054542;28;19978;-82
2021/09/08 08:43:50;;;;;;;;;;;;;;;21.54;51.27;96544.81;5055730;28;19993;-82
2021/09/08 08:46:18;;;;;;;;;;;;;;;21.52;49.26;96527.50;5055484;28;19970;-82
2021/09/08 08:48:44;;;;;;;;;;;;;;;21.57;49.36;96533.59;5053883;28;19976;-82
2021/09/08 08:51:10;;;;;;;;;;;;;;;21.62;49.30;96538.84;5055520;28;19975;-83
2021/09/08 08:53:36;;;;;;;;;;;;;;;21.58;50.23;96540.50;5055919;28;19971;-82
2021/09/08 08:56:02;;;;;;;;;;;;;;;21.62;50.06;96540.72;5055643;28;19995;-82
2021/09/08 08:58:28;;;;;;;;;;;;;;;21.56;50.45;96544.53;5055367;28;19977;-82
2021/09/08 09:01:13;;;;;;;;;;;;;;;21.55;50.03;96535.75;5053755;28;20066;-82
2021/09/08 09:03:39;;;;;;;;;;;;;;;21.54;50.41;96531.47;5054470;28;19969;-82
2021/09/08 09:06:05;;;;;;;;;;;;;;;21.57;50.30;96533.59;5055074;28;19971;-83
2021/09/08 09:08:34;;;;;;;;;;;;;;;21.48;50.18;96528.09;5055189;28;19980;-82
2021/09/08 09:11:00;;;;;;;;;;;;;;;21.55;48.79;96517.06;5055246;28;19978;-82
2021/09/08 09:13:30;;;;;;;;;;;;;;;21.56;49.52;96521.31;5055136;28;19989;-82
2021/09/08 09:16:07;;;;;;;;;;;;;;;21.48;50.06;96527.28;5054758;28;19963;-82
2021/09/08 09:18:37;;;;;;;;;;;;;;;21.39;49.33;96523.63;5054829;28;19955;-82
2021/09/08 09:21:07;;;;;;;;;;;;;;;21.41;51.04;96527.59;5055102;28;19959;-82
2021/09/08 09:23:50;;;;;;;;;;;;;;;21.48;51.03;96527.28;5038961;28;19986;-82
2021/09/08 09:26:24;;;;;;;;;;;;;;;21.52;51.02;96522.97;5054915;28;19963;-82
2021/09/08 09:28:50;;;;;;;;;;;;;;;21.53;51.12;96523.78;5055006;28;19989;-82
2021/09/08 09:31:18;;;;;;;;;;;;;;;21.57;52.36;96530.13;5054908;28;19970;-82
2021/09/08 09:33:44;;;;;;;;;;;;;;;21.60;50.62;96508.19;5054752;28;20440;-82
2021/09/08 09:36:14;;;;;;;;;;;;;;;21.53;50.20;96513.09;5054489;28;19965;-82
2021/09/08 09:38:40;;;;;;;;;;;;;;;21.45;50.19;96501.97;5054831;28;19961;-83
2021/09/08 09:41:06;;;;;;;;;;;;;;;21.43;50.78;96503.34;5054974;28;19969;-82
2021/09/08 09:43:32;;;;;;;;;;;;;;;21.37;50.92;96507.13;5054581;28;20040;-82
2021/09/08 09:46:05;;;;;;;;;;;;;;;21.38;51.99;96519.38;5053529;28;20049;-83
2021/09/08 09:48:31;;;;;;;;;;;;;;;21.36;50.61;96502.88;5054492;28;19982;-82
2021/09/08 09:51:00;;;;;;;;;;;;;;;21.37;50.97;96501.78;5054134;28;20404;-82
2021/09/08 09:53:27;;;;;;;;;;;;;;;21.39;50.52;96499.63;5054102;28;19973;-82
2021/09/08 09:55:53;;;;;;;;;;;;;;;21.40;50.21;96496.66;5054629;28;19957;-82
2021/09/08 09:58:19;;;;;;;;;;;;;;;21.42;51.01;96497.22;5054184;28;20395;-82
2021/09/08 10:00:45;;;;;;;;;;;;;;;21.47;51.26;96499.81;5054631;28;19963;-82
2021/09/08 10:03:11;;;;;;;;;;;;;;;21.56;51.76;96504.50;5054102;28;19962;-83
2021/09/08 10:05:37;;;;;;;;;;;;;;;21.62;51.83;96490.81;5053949;28;19964;-83
2021/09/08 10:08:05;;;;;;;;;;;;;;;21.71;52.17;96496.28;5053758;28;19972;-83
2021/09/08 10:10:33;;;;;;;;;;;;;;;21.77;50.81;96481.78;5053156;28;20463;-83
2021/09/08 10:13:02;;;;;;;;;;;;;;;21.82;50.29;96483.63;5054000;28;19963;-83
2021/09/08 10:15:29;;;;;;;;;;;;;;;21.86;50.50;96484.63;5053900;28;19968;-82
2021/09/08 10:18:04;;;;;;;;;;;;;;;21.91;50.91;96479.19;5052528;28;19970;-82
2021/09/08 10:20:30;;;;;;;;;;;;;;;21.99;50.72;96475.88;5053963;28;19961;-82
2021/09/08 10:23:05;;;;;;;;;;;;;;;22.13;50.08;96470.56;5053826;28;19997;-82
2021/09/08 10:25:31;;;;;;;;;;;;;;;22.31;51.02;96478.88;5046551;28;19961;-82
2021/09/08 10:27:56;;;;;;;;;;;;;;;22.38;49.16;96457.91;5053162;28;20073;-82
2021/09/08 10:30:26;;;;;;;;;;;;;;;22.41;48.19;96455.47;5053869;28;20053;-82
2021/09/08 10:32:52;;;;;;;;;;;;;;;22.46;49.35;96459.91;5053630;28;19959;-82
2021/09/08 10:35:18;;;;;;;;;;;;;;;22.56;48.54;96443.72;5054273;28;20338;-82
2021/09/08 10:37:45;;;;;;;;;;;;;;;22.65;48.46;96439.25;5053697;28;20346;-82
2021/09/08 10:40:12;;;;;;;;;;;;;;;22.71;48.42;96437.28;5053940;28;19981;-82
2021/09/08 10:42:57;;;;;;;;;;;;;;;22.86;47.95;96431.66;5053568;28;19974;-82
2021/09/08 10:45:24;;;;;;;;;;;;;;;23.04;48.50;96431.88;5053362;28;19963;-82
2021/09/08 10:47:52;;;;;;;;;;;;;;;23.17;48.34;96433.75;5053669;28;19983;-82
2021/09/08 10:50:36;;;;;;;;;;;;;;;23.36;48.76;96432.84;5053699;28;19968;-81
2021/09/08 10:53:21;;;;;;;;;;;;;;;23.60;46.58;96424.53;5038300;28;20446;-81
2021/09/08 10:55:48;;;;;;;;;;;;;;;23.78;47.33;96428.19;5053343;28;19964;-82
2021/09/08 10:58:15;;;;;;;;;;;;;;;23.93;45.94;96416.31;5053441;28;19969;-81
2021/09/08 11:00:42;;;;;;;;;;;;;;;24.08;44.92;96405.22;5053532;28;20377;-81
2021/09/08 11:03:23;;;;;;;;;;;;;;;24.20;45.71;96415.41;5053856;28;20385;-81
2021/09/08 11:05:59;;;;;;;;;;;;;;;24.27;45.80;96421.09;5045338;28;19981;-81
2021/09/08 11:08:26;;;;;;;;;;;;;;;24.28;44.96;96418.13;5053502;28;20471;-81
2021/09/08 11:11:13;;;;;;;;;;;;;;;24.31;42.74;96397.94;5053921;28;20470;-81
2021/09/08 11:13:39;;;;;;;;;;;;;;;24.37;44.30;96417.38;5053349;28;19972;-81
2021/09/08 11:16:15;;;;;;;;;;;;;;;24.47;44.35;96434.00;5053241;28;20373;-81
2021/09/08 11:18:41;;;;;;;;;;;;;;;24.64;43.71;96425.25;5052993;28;20302;-82
2021/09/08 11:21:07;;;;;;;;;;;;;;;24.88;45.03;96438.31;5052328;28;19959;-81
2021/09/08 11:23:34;;;;;;;;;;;;;;;25.05;44.29;96439.44;5053590;28;19981;-81
2021/09/08 11:26:08;;;;;;;;;;;;;;;25.26;44.20;96432.44;5053192;28;19945;-81
2021/09/08 11:28:35;;;;;;;;;;;;;;;25.45;44.31;96434.84;5055988;28;19971;-81
2021/09/08 11:31:09;;;;;;;;;;;;;;;25.52;43.04;96424.41;5057009;28;20428;-81
2021/09/08 11:33:35;;;;;;;;;;;;;;;25.56;41.88;96446.06;5057377;28;19962;-81
2021/09/08 11:36:01;;;;;;;;;;;;;;;25.59;43.04;96445.44;5056952;28;19961;-81
2021/09/08 11:38:29;;;;;;;;;;;;;;;25.65;42.04;96427.28;5056016;28;19949;-81
2021/09/08 11:40:59;;;;;;;;;;;;;;;25.82;41.66;96429.16;5056982;28;20329;-81
2021/09/08 11:43:29;;;;;;;;;;;;;;;25.97;42.30;96425.22;5056578;28;19949;-81
2021/09/08 11:45:55;;;;;;;;;;;;;;;26.10;39.19;96414.31;5046062;28;19952;-81
2021/09/08 11:48:29;;;;;;;;;;;;;;;26.21;38.60;96403.22;5056724;28;19971;-81
2021/09/08 11:51:03;;;;;;;;;;;;;;;26.15;37.99;96428.69;5056876;28;19944;-81
2021/09/08 11:53:28;;;;;;;;;;;;;;;26.19;38.81;96421.56;5056595;28;20381;-81
2021/09/08 11:56:05;;;;;;;;;;;;;;;26.27;38.38;96412.69;5056720;28;19948;-80
2021/09/08 11:58:31;;;;;;;;;;;;;;;26.36;39.61;96424.22;5055341;28;19952;-81
2021/09/08 12:01:04;;;;;;;;;;;;;;;26.46;36.57;96402.38;5054698;28;19947;-81
2021/09/08 12:03:31;;;;;;;;;;;;;;;26.49;37.22;96406.31;5056729;28;19948;-81
2021/09/08 12:06:07;;;;;;;;;;;;;;;26.45;37.06;96406.16;5055429;28;20399;-81
2021/09/08 12:08:33;;;;;;;;;;;;;;;26.58;37.46;96414.38;5056368;28;19965;-80
2021/09/08 12:10:59;;;;;;;;;;;;;;;26.68;37.70;96414.00;5056272;28;19959;-81
2021/09/08 12:13:25;;;;;;;;;;;;;;;26.80;36.40;96397.97;5055699;28;19980;-81
2021/09/08 12:15:51;;;;;;;;;;;;;;;26.83;35.45;96388.47;5056074;28;19955;-81
2021/09/08 12:18:18;;;;;;;;;;;;;;;26.82;36.70;96411.91;5056547;28;20034;-80
2021/09/08 12:20:44;;;;;;;;;;;;;;;26.91;34.43;96387.63;5056088;28;19941;-81
2021/09/08 12:23:42;;;;;;;;;;;;;;;26.88;36.88;96401.75;5055463;28;19966;-81
2021/09/08 12:26:09;;;;;;;;;;;;;;;27.00;37.27;96395.66;5009236;28;19961;-80
2021/09/08 12:28:36;;;;;;;;;;;;;;;27.04;38.18;96405.44;5055994;28;19960;-81
2021/09/08 12:31:18;;;;;;;;;;;;;;;27.15;37.91;96397.78;5055305;28;19945;-80
2021/09/08 12:33:54;;;;;;;;;;;;;;;27.30;38.31;96397.25;5055642;28;19946;-80
2021/09/08 12:36:20;;;;;;;;;;;;;;;27.27;35.63;96375.56;5055998;28;19955;-80
2021/09/08 12:38:50;;;;;;;;;;;;;;;27.22;34.75;96367.66;5054592;28;20413;-80
2021/09/08 12:41:16;;;;;;;;;;;;;;;27.17;35.79;96392.84;5055737;28;19967;-80
2021/09/08 12:43:46;;;;;;;;;;;;;;;27.23;35.35;96390.81;5055749;28;19951;-80
2021/09/08 12:46:12;;;;;;;;;;;;;;;27.31;35.54;96376.50;5055441;28;20426;-81
2021/09/08 12:48:39;;;;;;;;;;;;;;;27.40;32.37;96352.97;5055705;28;19956;-81